sensor_id;sensor_type;location;lat;lon;timestamp;temperature;humidity
20171;DHT22;10245;51.344;6.620;2023-02-02T00:01:36;8.10;83.30
20171;DHT22;10245;51.344;6.620;2023-02-02T00:03:59;8.10;83.20
20171;DHT22;10245;51.344;6.620;2023-02-02T00:06:25;8.10;83.50
20171;DHT22;10245;51.344;6.620;2023-02-02T00:08:50;8.10;83.40
20171;DHT22;10245;51.344;6.620;2023-02-02T00:11:14;8.00;83.50
20171;DHT22;10245;51.344;6.620;2023-02-02T00:13:38;8.00;83.40
20171;DHT22;10245;51.344;6.620;2023-02-02T00:16:36;8.00;83.50
20171;DHT22;10245;51.344;6.620;2023-02-02T00:19:03;8.00;83.60
20171;DHT22;10245;51.344;6.620;2023-02-02T00:21:28;8.00;83.60
20171;DHT22;10245;51.344;6.620;2023-02-02T00:23:53;8.00;83.70
20171;DHT22;10245;51.344;6.620;2023-02-02T00:26:17;8.00;83.70
20171;DHT22;10245;51.344;6.620;2023-02-02T00:28:41;8.00;84.20
20171;DHT22;10245;51.344;6.620;2023-02-02T00:31:04;7.90;84.50
20171;DHT22;10245;51.344;6.620;2023-02-02T00:33:28;7.90;84.80
20171;DHT22;10245;51.344;6.620;2023-02-02T00:35:51;7.90;84.70
20171;DHT22;10245;51.344;6.620;2023-02-02T00:38:15;7.90;84.60
20171;DHT22;10245;51.344;6.620;2023-02-02T00:40:39;7.90;84.90
20171;DHT22;10245;51.344;6.620;2023-02-02T00:43:03;7.90;84.60
20171;DHT22;10245;51.344;6.620;2023-02-02T00:45:26;7.90;84.70
20171;DHT22;10245;51.344;6.620;2023-02-02T00:47:48;8.00;84.70
20171;DHT22;10245;51.344;6.620;2023-02-02T00:50:14;8.00;84.70
20171;DHT22;10245;51.344;6.620;2023-02-02T00:52:38;8.00;84.70
20171;DHT22;10245;51.344;6.620;2023-02-02T00:55:02;7.90;84.90
20171;DHT22;10245;51.344;6.620;2023-02-02T00:57:27;8.00;84.70
20171;DHT22;10245;51.344;6.620;2023-02-02T00:59:51;8.00;84.80
20171;DHT22;10245;51.344;6.620;2023-02-02T01:02:14;8.00;84.60
20171;DHT22;10245;51.344;6.620;2023-02-02T01:04:38;8.00;84.80
20171;DHT22;10245;51.344;6.620;2023-02-02T01:07:02;8.00;84.70
20171;DHT22;10245;51.344;6.620;2023-02-02T01:09:25;8.00;84.50
20171;DHT22;10245;51.344;6.620;2023-02-02T01:11:49;8.00;84.50
20171;DHT22;10245;51.344;6.620;2023-02-02T01:14:13;8.00;84.60
20171;DHT22;10245;51.344;6.620;2023-02-02T01:16:37;8.00;84.50
20171;DHT22;10245;51.344;6.620;2023-02-02T01:19:00;8.00;84.50
20171;DHT22;10245;51.344;6.620;2023-02-02T01:21:24;8.00;84.40
20171;DHT22;10245;51.344;6.620;2023-02-02T01:23:47;8.00;84.60
20171;DHT22;10245;51.344;6.620;2023-02-02T01:26:11;8.00;84.60
20171;DHT22;10245;51.344;6.620;2023-02-02T01:28:36;8.00;84.90
20171;DHT22;10245;51.344;6.620;2023-02-02T01:31:05;8.00;85.00
20171;DHT22;10245;51.344;6.620;2023-02-02T01:33:29;8.00;85.10
20171;DHT22;10245;51.344;6.620;2023-02-02T01:35:54;8.00;85.10
20171;DHT22;10245;51.344;6.620;2023-02-02T01:38:18;8.00;85.20
20171;DHT22;10245;51.344;6.620;2023-02-02T01:40:48;8.00;85.40
20171;DHT22;10245;51.344;6.620;2023-02-02T01:43:21;8.00;85.40
20171;DHT22;10245;51.344;6.620;2023-02-02T01:45:45;7.90;85.60
20171;DHT22;10245;51.344;6.620;2023-02-02T01:48:10;8.00;85.60
20171;DHT22;10245;51.344;6.620;2023-02-02T01:50:34;7.90;85.70
20171;DHT22;10245;51.344;6.620;2023-02-02T01:52:59;7.90;85.70
20171;DHT22;10245;51.344;6.620;2023-02-02T01:55:27;7.90;85.90
20171;DHT22;10245;51.344;6.620;2023-02-02T01:57:55;7.90;86.00
20171;DHT22;10245;51.344;6.620;2023-02-02T02:00:21;7.90;86.30
20171;DHT22;10245;51.344;6.620;2023-02-02T02:02:48;7.80;86.60
20171;DHT22;10245;51.344;6.620;2023-02-02T02:05:19;7.80;86.70
20171;DHT22;10245;51.344;6.620;2023-02-02T02:07:47;7.80;87.10
20171;DHT22;10245;51.344;6.620;2023-02-02T02:10:12;7.70;87.50
20171;DHT22;10245;51.344;6.620;2023-02-02T02:12:35;7.80;87.00
20171;DHT22;10245;51.344;6.620;2023-02-02T02:14:59;7.70;87.20
20171;DHT22;10245;51.344;6.620;2023-02-02T02:17:52;7.70;87.40
20171;DHT22;10245;51.344;6.620;2023-02-02T02:20:44;7.70;87.60
20171;DHT22;10245;51.344;6.620;2023-02-02T02:24:19;7.70;87.50
20171;DHT22;10245;51.344;6.620;2023-02-02T02:27:36;7.70;87.50
20171;DHT22;10245;51.344;6.620;2023-02-02T02:30:35;7.70;87.30
20171;DHT22;10245;51.344;6.620;2023-02-02T02:33:06;7.80;87.30
20171;DHT22;10245;51.344;6.620;2023-02-02T02:35:37;7.70;87.20
20171;DHT22;10245;51.344;6.620;2023-02-02T02:38:08;7.70;87.20
20171;DHT22;10245;51.344;6.620;2023-02-02T02:40:36;7.70;87.70
20171;DHT22;10245;51.344;6.620;2023-02-02T02:43:06;7.70;87.80
20171;DHT22;10245;51.344;6.620;2023-02-02T02:45:35;7.70;87.70
20171;DHT22;10245;51.344;6.620;2023-02-02T02:47:59;7.60;87.80
20171;DHT22;10245;51.344;6.620;2023-02-02T02:50:24;7.60;87.70
20171;DHT22;10245;51.344;6.620;2023-02-02T02:52:51;7.60;87.80
20171;DHT22;10245;51.344;6.620;2023-02-02T02:55:24;7.60;87.60
20171;DHT22;10245;51.344;6.620;2023-02-02T02:57:59;7.70;87.30
20171;DHT22;10245;51.344;6.620;2023-02-02T03:00:37;7.70;87.20
20171;DHT22;10245;51.344;6.620;2023-02-02T03:03:07;7.80;86.90
20171;DHT22;10245;51.344;6.620;2023-02-02T03:05:43;7.80;87.00
20171;DHT22;10245;51.344;6.620;2023-02-02T03:08:16;7.80;86.80
20171;DHT22;10245;51.344;6.620;2023-02-02T03:10:45;7.80;86.80
20171;DHT22;10245;51.344;6.620;2023-02-02T03:13:10;7.80;86.80
20171;DHT22;10245;51.344;6.620;2023-02-02T03:15:35;7.80;86.70
20171;DHT22;10245;51.344;6.620;2023-02-02T03:17:58;7.80;86.70
20171;DHT22;10245;51.344;6.620;2023-02-02T03:20:22;7.80;86.40
20171;DHT22;10245;51.344;6.620;2023-02-02T03:22:47;7.80;86.40
20171;DHT22;10245;51.344;6.620;2023-02-02T03:25:10;7.80;86.30
20171;DHT22;10245;51.344;6.620;2023-02-02T03:27:34;7.80;86.50
20171;DHT22;10245;51.344;6.620;2023-02-02T03:29:57;7.80;87.00
20171;DHT22;10245;51.344;6.620;2023-02-02T03:32:21;7.80;87.40
20171;DHT22;10245;51.344;6.620;2023-02-02T03:34:44;7.70;88.00
20171;DHT22;10245;51.344;6.620;2023-02-02T03:37:07;7.60;88.70
20171;DHT22;10245;51.344;6.620;2023-02-02T03:39:32;7.50;89.00
20171;DHT22;10245;51.344;6.620;2023-02-02T03:41:56;7.50;89.20
20171;DHT22;10245;51.344;6.620;2023-02-02T03:44:19;7.50;89.40
20171;DHT22;10245;51.344;6.620;2023-02-02T03:46:43;7.50;89.20
20171;DHT22;10245;51.344;6.620;2023-02-02T03:49:06;7.50;89.00
20171;DHT22;10245;51.344;6.620;2023-02-02T03:51:30;7.60;88.90
20171;DHT22;10245;51.344;6.620;2023-02-02T03:53:53;7.60;88.60
20171;DHT22;10245;51.344;6.620;2023-02-02T03:56:18;7.60;88.20
20171;DHT22;10245;51.344;6.620;2023-02-02T03:58:41;7.70;87.80
20171;DHT22;10245;51.344;6.620;2023-02-02T04:01:07;7.60;88.10
20171;DHT22;10245;51.344;6.620;2023-02-02T04:03:33;7.60;88.40
20171;DHT22;10245;51.344;6.620;2023-02-02T04:05:56;7.60;88.00
20171;DHT22;10245;51.344;6.620;2023-02-02T04:08:19;7.70;87.50
20171;DHT22;10245;51.344;6.620;2023-02-02T04:10:43;7.70;87.50
20171;DHT22;10245;51.344;6.620;2023-02-02T04:13:07;7.60;87.60
20171;DHT22;10245;51.344;6.620;2023-02-02T04:15:31;7.70;87.00
20171;DHT22;10245;51.344;6.620;2023-02-02T04:17:54;7.80;86.80
20171;DHT22;10245;51.344;6.620;2023-02-02T04:20:17;7.80;86.80
20171;DHT22;10245;51.344;6.620;2023-02-02T04:22:41;7.80;87.10
20171;DHT22;10245;51.344;6.620;2023-02-02T04:25:05;7.90;86.40
20171;DHT22;10245;51.344;6.620;2023-02-02T04:27:28;7.80;86.50
20171;DHT22;10245;51.344;6.620;2023-02-02T04:29:55;7.80;86.40
20171;DHT22;10245;51.344;6.620;2023-02-02T04:32:19;7.80;86.80
20171;DHT22;10245;51.344;6.620;2023-02-02T04:34:43;7.90;86.40
20171;DHT22;10245;51.344;6.620;2023-02-02T04:37:06;7.80;86.60
20171;DHT22;10245;51.344;6.620;2023-02-02T04:39:30;7.80;86.60
20171;DHT22;10245;51.344;6.620;2023-02-02T04:41:53;7.80;86.60
20171;DHT22;10245;51.344;6.620;2023-02-02T04:44:16;7.90;86.10
20171;DHT22;10245;51.344;6.620;2023-02-02T04:46:41;7.90;86.30
20171;DHT22;10245;51.344;6.620;2023-02-02T04:49:05;7.90;86.30
20171;DHT22;10245;51.344;6.620;2023-02-02T04:51:28;7.80;86.40
20171;DHT22;10245;51.344;6.620;2023-02-02T04:53:51;7.90;86.10
20171;DHT22;10245;51.344;6.620;2023-02-02T04:56:16;7.90;86.40
20171;DHT22;10245;51.344;6.620;2023-02-02T04:58:41;7.90;86.30
20171;DHT22;10245;51.344;6.620;2023-02-02T05:01:08;7.90;86.50
20171;DHT22;10245;51.344;6.620;2023-02-02T05:03:34;7.90;86.30
20171;DHT22;10245;51.344;6.620;2023-02-02T05:06:01;7.90;86.40
20171;DHT22;10245;51.344;6.620;2023-02-02T05:08:24;7.90;86.20
20171;DHT22;10245;51.344;6.620;2023-02-02T05:10:48;7.90;86.00
20171;DHT22;10245;51.344;6.620;2023-02-02T05:13:11;7.90;86.10
20171;DHT22;10245;51.344;6.620;2023-02-02T05:15:35;7.90;86.20
20171;DHT22;10245;51.344;6.620;2023-02-02T05:17:58;7.90;86.10
20171;DHT22;10245;51.344;6.620;2023-02-02T05:20:23;8.00;85.90
20171;DHT22;10245;51.344;6.620;2023-02-02T05:22:47;7.90;85.70
20171;DHT22;10245;51.344;6.620;2023-02-02T05:25:11;8.00;85.50
20171;DHT22;10245;51.344;6.620;2023-02-02T05:27:34;8.00;85.60
20171;DHT22;10245;51.344;6.620;2023-02-02T05:29:58;8.00;85.20
20171;DHT22;10245;51.344;6.620;2023-02-02T05:32:21;8.00;85.40
20171;DHT22;10245;51.344;6.620;2023-02-02T05:34:44;8.00;85.20
20171;DHT22;10245;51.344;6.620;2023-02-02T05:37:09;8.00;85.40
20171;DHT22;10245;51.344;6.620;2023-02-02T05:39:33;8.00;84.90
20171;DHT22;10245;51.344;6.620;2023-02-02T05:41:56;8.00;85.10
20171;DHT22;10245;51.344;6.620;2023-02-02T05:44:19;8.00;85.10
20171;DHT22;10245;51.344;6.620;2023-02-02T05:46:43;8.00;84.80
20171;DHT22;10245;51.344;6.620;2023-02-02T05:49:08;8.00;84.90
20171;DHT22;10245;51.344;6.620;2023-02-02T05:51:36;8.00;84.90
20171;DHT22;10245;51.344;6.620;2023-02-02T05:54:02;8.00;84.90
20171;DHT22;10245;51.344;6.620;2023-02-02T05:56:26;8.00;85.40
20171;DHT22;10245;51.344;6.620;2023-02-02T05:58:49;8.00;84.90
20171;DHT22;10245;51.344;6.620;2023-02-02T06:01:13;8.00;84.80
20171;DHT22;10245;51.344;6.620;2023-02-02T06:03:37;8.00;85.00
20171;DHT22;10245;51.344;6.620;2023-02-02T06:06:01;8.00;85.30
20171;DHT22;10245;51.344;6.620;2023-02-02T06:08:27;8.10;84.40
20171;DHT22;10245;51.344;6.620;2023-02-02T06:10:53;8.10;84.70
20171;DHT22;10245;51.344;6.620;2023-02-02T06:13:16;8.00;84.90
20171;DHT22;10245;51.344;6.620;2023-02-02T06:15:39;8.00;85.10
20171;DHT22;10245;51.344;6.620;2023-02-02T06:18:04;8.00;85.20
20171;DHT22;10245;51.344;6.620;2023-02-02T06:20:29;8.00;84.80
20171;DHT22;10245;51.344;6.620;2023-02-02T06:22:52;8.00;85.10
20171;DHT22;10245;51.344;6.620;2023-02-02T06:25:16;8.00;85.40
20171;DHT22;10245;51.344;6.620;2023-02-02T06:27:40;7.90;85.50
20171;DHT22;10245;51.344;6.620;2023-02-02T06:30:06;7.90;85.70
20171;DHT22;10245;51.344;6.620;2023-02-02T06:32:30;7.90;86.10
20171;DHT22;10245;51.344;6.620;2023-02-02T06:34:54;7.90;86.20
20171;DHT22;10245;51.344;6.620;2023-02-02T06:37:17;7.90;86.20
20171;DHT22;10245;51.344;6.620;2023-02-02T06:39:40;7.90;86.10
20171;DHT22;10245;51.344;6.620;2023-02-02T06:42:04;7.90;86.00
20171;DHT22;10245;51.344;6.620;2023-02-02T06:44:43;7.90;86.10
20171;DHT22;10245;51.344;6.620;2023-02-02T06:47:06;7.90;86.10
20171;DHT22;10245;51.344;6.620;2023-02-02T06:49:29;7.90;86.20
20171;DHT22;10245;51.344;6.620;2023-02-02T06:51:52;7.90;86.20
20171;DHT22;10245;51.344;6.620;2023-02-02T06:54:16;7.90;86.30
20171;DHT22;10245;51.344;6.620;2023-02-02T06:56:39;7.90;86.40
20171;DHT22;10245;51.344;6.620;2023-02-02T06:59:02;7.90;86.40
20171;DHT22;10245;51.344;6.620;2023-02-02T07:01:28;7.80;86.40
20171;DHT22;10245;51.344;6.620;2023-02-02T07:03:51;7.90;86.50
20171;DHT22;10245;51.344;6.620;2023-02-02T07:06:17;7.90;86.40
20171;DHT22;10245;51.344;6.620;2023-02-02T07:08:41;7.90;86.50
20171;DHT22;10245;51.344;6.620;2023-02-02T07:11:04;7.80;86.70
20171;DHT22;10245;51.344;6.620;2023-02-02T07:13:36;7.80;86.80
20171;DHT22;10245;51.344;6.620;2023-02-02T07:15:59;7.80;87.00
20171;DHT22;10245;51.344;6.620;2023-02-02T07:18:26;7.80;87.00
20171;DHT22;10245;51.344;6.620;2023-02-02T07:20:49;7.80;87.50
20171;DHT22;10245;51.344;6.620;2023-02-02T07:23:13;7.70;87.60
20171;DHT22;10245;51.344;6.620;2023-02-02T07:25:36;7.80;87.70
20171;DHT22;10245;51.344;6.620;2023-02-02T07:27:59;7.80;87.70
20171;DHT22;10245;51.344;6.620;2023-02-02T07:30:23;7.80;87.80
20171;DHT22;10245;51.344;6.620;2023-02-02T07:32:50;7.70;88.00
20171;DHT22;10245;51.344;6.620;2023-02-02T07:35:15;7.70;88.10
20171;DHT22;10245;51.344;6.620;2023-02-02T07:37:39;7.70;88.20
20171;DHT22;10245;51.344;6.620;2023-02-02T07:40:02;7.70;88.30
20171;DHT22;10245;51.344;6.620;2023-02-02T07:42:26;7.70;88.30
20171;DHT22;10245;51.344;6.620;2023-02-02T07:44:50;7.80;88.30
20171;DHT22;10245;51.344;6.620;2023-02-02T07:47:13;7.70;88.80
20171;DHT22;10245;51.344;6.620;2023-02-02T07:49:37;7.80;88.40
20171;DHT22;10245;51.344;6.620;2023-02-02T07:52:03;7.80;88.20
20171;DHT22;10245;51.344;6.620;2023-02-02T07:54:26;7.80;88.20
20171;DHT22;10245;51.344;6.620;2023-02-02T07:56:50;7.80;88.20
20171;DHT22;10245;51.344;6.620;2023-02-02T07:59:13;7.80;87.90
20171;DHT22;10245;51.344;6.620;2023-02-02T08:01:37;7.90;87.90
20171;DHT22;10245;51.344;6.620;2023-02-02T08:04:01;7.80;88.40
20171;DHT22;10245;51.344;6.620;2023-02-02T08:06:26;7.80;88.50
20171;DHT22;10245;51.344;6.620;2023-02-02T08:08:53;7.80;88.50
20171;DHT22;10245;51.344;6.620;2023-02-02T08:11:19;7.80;88.50
20171;DHT22;10245;51.344;6.620;2023-02-02T08:13:47;7.70;88.80
20171;DHT22;10245;51.344;6.620;2023-02-02T08:16:11;7.70;88.90
20171;DHT22;10245;51.344;6.620;2023-02-02T08:18:35;7.60;89.30
20171;DHT22;10245;51.344;6.620;2023-02-02T08:21:00;7.60;89.60
20171;DHT22;10245;51.344;6.620;2023-02-02T08:23:23;7.50;89.90
20171;DHT22;10245;51.344;6.620;2023-02-02T08:25:48;7.50;90.00
20171;DHT22;10245;51.344;6.620;2023-02-02T08:28:12;7.50;90.30
20171;DHT22;10245;51.344;6.620;2023-02-02T08:30:35;7.50;90.30
20171;DHT22;10245;51.344;6.620;2023-02-02T08:32:59;7.50;90.50
20171;DHT22;10245;51.344;6.620;2023-02-02T08:35:22;7.50;90.70
20171;DHT22;10245;51.344;6.620;2023-02-02T08:37:47;7.50;90.90
20171;DHT22;10245;51.344;6.620;2023-02-02T08:40:11;7.40;91.20
20171;DHT22;10245;51.344;6.620;2023-02-02T08:42:36;7.40;91.50
20171;DHT22;10245;51.344;6.620;2023-02-02T08:44:59;7.40;91.30
20171;DHT22;10245;51.344;6.620;2023-02-02T08:47:43;7.40;91.50
20171;DHT22;10245;51.344;6.620;2023-02-02T08:50:07;7.40;91.70
20171;DHT22;10245;51.344;6.620;2023-02-02T08:52:31;7.50;91.50
20171;DHT22;10245;51.344;6.620;2023-02-02T08:54:55;7.40;91.80
20171;DHT22;10245;51.344;6.620;2023-02-02T08:57:18;7.50;92.10
20171;DHT22;10245;51.344;6.620;2023-02-02T08:59:43;7.40;92.20
20171;DHT22;10245;51.344;6.620;2023-02-02T09:02:08;7.40;92.30
20171;DHT22;10245;51.344;6.620;2023-02-02T09:04:32;7.40;92.40
20171;DHT22;10245;51.344;6.620;2023-02-02T09:06:55;7.30;92.50
20171;DHT22;10245;51.344;6.620;2023-02-02T09:09:18;7.40;92.60
20171;DHT22;10245;51.344;6.620;2023-02-02T09:11:42;7.40;92.70
20171;DHT22;10245;51.344;6.620;2023-02-02T09:14:06;7.40;92.60
20171;DHT22;10245;51.344;6.620;2023-02-02T09:16:32;7.40;92.70
20171;DHT22;10245;51.344;6.620;2023-02-02T09:18:57;7.40;92.70
20171;DHT22;10245;51.344;6.620;2023-02-02T09:21:20;7.40;92.50
20171;DHT22;10245;51.344;6.620;2023-02-02T09:23:45;7.40;92.50
20171;DHT22;10245;51.344;6.620;2023-02-02T09:26:10;7.40;92.60
20171;DHT22;10245;51.344;6.620;2023-02-02T09:28:34;7.50;92.40
20171;DHT22;10245;51.344;6.620;2023-02-02T09:31:00;7.50;92.50
20171;DHT22;10245;51.344;6.620;2023-02-02T09:33:25;7.50;92.40
20171;DHT22;10245;51.344;6.620;2023-02-02T09:35:48;7.50;91.90
20171;DHT22;10245;51.344;6.620;2023-02-02T09:38:11;7.60;91.40
20171;DHT22;10245;51.344;6.620;2023-02-02T09:40:35;7.50;91.50
20171;DHT22;10245;51.344;6.620;2023-02-02T09:43:05;7.60;91.50
20171;DHT22;10245;51.344;6.620;2023-02-02T09:45:39;7.60;91.60
20171;DHT22;10245;51.344;6.620;2023-02-02T09:48:19;7.70;91.00
20171;DHT22;10245;51.344;6.620;2023-02-02T09:50:51;7.70;90.90
20171;DHT22;10245;51.344;6.620;2023-02-02T09:53:22;7.80;90.60
20171;DHT22;10245;51.344;6.620;2023-02-02T09:55:51;7.80;90.20
20171;DHT22;10245;51.344;6.620;2023-02-02T09:58:20;7.90;89.80
20171;DHT22;10245;51.344;6.620;2023-02-02T10:00:55;8.00;88.70
20171;DHT22;10245;51.344;6.620;2023-02-02T10:03:28;7.90;89.00
20171;DHT22;10245;51.344;6.620;2023-02-02T10:05:57;8.00;89.00
20171;DHT22;10245;51.344;6.620;2023-02-02T10:08:32;8.10;87.60
20171;DHT22;10245;51.344;6.620;2023-02-02T10:10:59;8.10;87.80
20171;DHT22;10245;51.344;6.620;2023-02-02T10:13:29;8.20;86.80
20171;DHT22;10245;51.344;6.620;2023-02-02T10:15:59;8.10;87.20
20171;DHT22;10245;51.344;6.620;2023-02-02T10:18:35;8.20;86.60
20171;DHT22;10245;51.344;6.620;2023-02-02T10:21:05;8.20;86.70
20171;DHT22;10245;51.344;6.620;2023-02-02T10:23:34;8.30;85.90
20171;DHT22;10245;51.344;6.620;2023-02-02T10:26:02;8.40;86.00
20171;DHT22;10245;51.344;6.620;2023-02-02T10:28:41;8.30;86.40
20171;DHT22;10245;51.344;6.620;2023-02-02T10:31:21;8.40;85.70
20171;DHT22;10245;51.344;6.620;2023-02-02T10:34:00;8.40;85.90
20171;DHT22;10245;51.344;6.620;2023-02-02T10:36:38;8.50;85.70
20171;DHT22;10245;51.344;6.620;2023-02-02T10:39:13;8.50;85.40
20171;DHT22;10245;51.344;6.620;2023-02-02T10:41:45;8.50;85.50
20171;DHT22;10245;51.344;6.620;2023-02-02T10:44:20;8.50;85.60
20171;DHT22;10245;51.344;6.620;2023-02-02T10:46:49;8.50;85.50
20171;DHT22;10245;51.344;6.620;2023-02-02T10:49:25;8.50;85.20
20171;DHT22;10245;51.344;6.620;2023-02-02T10:51:56;8.50;84.90
20171;DHT22;10245;51.344;6.620;2023-02-02T10:54:43;8.60;84.50
20171;DHT22;10245;51.344;6.620;2023-02-02T10:57:25;8.60;84.50
20171;DHT22;10245;51.344;6.620;2023-02-02T10:59:59;8.60;84.80
20171;DHT22;10245;51.344;6.620;2023-02-02T11:02:27;8.60;84.70
20171;DHT22;10245;51.344;6.620;2023-02-02T11:04:52;8.60;84.30
20171;DHT22;10245;51.344;6.620;2023-02-02T11:07:33;8.60;84.30
20171;DHT22;10245;51.344;6.620;2023-02-02T11:09:57;8.60;84.80
20171;DHT22;10245;51.344;6.620;2023-02-02T11:12:26;8.60;84.60
20171;DHT22;10245;51.344;6.620;2023-02-02T11:14:58;8.60;84.80
20171;DHT22;10245;51.344;6.620;2023-02-02T11:17:24;8.60;83.80
20171;DHT22;10245;51.344;6.620;2023-02-02T11:19:48;8.60;84.50
20171;DHT22;10245;51.344;6.620;2023-02-02T11:22:29;8.60;84.90
20171;DHT22;10245;51.344;6.620;2023-02-02T11:24:56;8.60;84.70
20171;DHT22;10245;51.344;6.620;2023-02-02T11:27:22;8.50;85.00
20171;DHT22;10245;51.344;6.620;2023-02-02T11:29:48;8.60;85.00
20171;DHT22;10245;51.344;6.620;2023-02-02T11:32:18;8.50;85.20
20171;DHT22;10245;51.344;6.620;2023-02-02T11:34:46;8.50;85.10
20171;DHT22;10245;51.344;6.620;2023-02-02T11:37:11;8.50;85.20
20171;DHT22;10245;51.344;6.620;2023-02-02T11:39:37;8.50;85.60
20171;DHT22;10245;51.344;6.620;2023-02-02T11:42:03;8.50;85.10
20171;DHT22;10245;51.344;6.620;2023-02-02T11:44:29;8.50;85.60
20171;DHT22;10245;51.344;6.620;2023-02-02T11:46:55;8.50;85.50
20171;DHT22;10245;51.344;6.620;2023-02-02T11:49:21;8.50;85.50
20171;DHT22;10245;51.344;6.620;2023-02-02T11:51:56;8.50;85.50
20171;DHT22;10245;51.344;6.620;2023-02-02T11:54:24;8.50;85.70
20171;DHT22;10245;51.344;6.620;2023-02-02T11:56:53;8.60;85.60
20171;DHT22;10245;51.344;6.620;2023-02-02T11:59:28;8.50;85.40
20171;DHT22;10245;51.344;6.620;2023-02-02T12:02:16;8.60;85.70
20171;DHT22;10245;51.344;6.620;2023-02-02T12:04:48;8.60;85.70
20171;DHT22;10245;51.344;6.620;2023-02-02T12:07:17;8.60;85.40
20171;DHT22;10245;51.344;6.620;2023-02-02T12:09:41;8.60;85.20
20171;DHT22;10245;51.344;6.620;2023-02-02T12:12:08;8.60;85.40
20171;DHT22;10245;51.344;6.620;2023-02-02T12:14:47;8.60;85.70
20171;DHT22;10245;51.344;6.620;2023-02-02T12:17:26;8.60;85.60
20171;DHT22;10245;51.344;6.620;2023-02-02T12:23:03;8.60;85.40
20171;DHT22;10245;51.344;6.620;2023-02-02T12:25:57;8.50;86.00
20171;DHT22;10245;51.344;6.620;2023-02-02T12:29:01;8.60;85.70
20171;DHT22;10245;51.344;6.620;2023-02-02T12:31:39;8.50;85.70
20171;DHT22;10245;51.344;6.620;2023-02-02T12:34:14;8.60;85.40
20171;DHT22;10245;51.344;6.620;2023-02-02T12:36:49;8.60;85.00
20171;DHT22;10245;51.344;6.620;2023-02-02T12:39:29;8.60;84.80
20171;DHT22;10245;51.344;6.620;2023-02-02T12:42:10;8.50;85.30
20171;DHT22;10245;51.344;6.620;2023-02-02T12:48:08;8.50;86.50
20171;DHT22;10245;51.344;6.620;2023-02-02T12:50:42;8.50;87.20
20171;DHT22;10245;51.344;6.620;2023-02-02T12:53:27;8.50;87.20
20171;DHT22;10245;51.344;6.620;2023-02-02T12:56:06;8.50;87.10
20171;DHT22;10245;51.344;6.620;2023-02-02T12:58:39;8.50;87.00
20171;DHT22;10245;51.344;6.620;2023-02-02T13:01:13;8.50;86.80
20171;DHT22;10245;51.344;6.620;2023-02-02T13:03:57;8.50;86.80
20171;DHT22;10245;51.344;6.620;2023-02-02T13:06:48;8.50;86.60
20171;DHT22;10245;51.344;6.620;2023-02-02T13:09:22;8.50;86.00
20171;DHT22;10245;51.344;6.620;2023-02-02T13:11:52;8.50;86.10
20171;DHT22;10245;51.344;6.620;2023-02-02T13:14:22;8.50;86.00
20171;DHT22;10245;51.344;6.620;2023-02-02T13:16:52;8.50;86.40
20171;DHT22;10245;51.344;6.620;2023-02-02T13:19:23;8.50;86.30
20171;DHT22;10245;51.344;6.620;2023-02-02T13:21:50;8.40;86.80
20171;DHT22;10245;51.344;6.620;2023-02-02T13:24:19;8.40;87.20
20171;DHT22;10245;51.344;6.620;2023-02-02T13:26:47;8.30;87.90
20171;DHT22;10245;51.344;6.620;2023-02-02T13:29:21;8.20;88.70
20171;DHT22;10245;51.344;6.620;2023-02-02T13:31:55;8.20;89.10
20171;DHT22;10245;51.344;6.620;2023-02-02T13:34:23;8.20;89.60
20171;DHT22;10245;51.344;6.620;2023-02-02T13:36:51;8.10;89.60
20171;DHT22;10245;51.344;6.620;2023-02-02T13:39:21;8.10;89.70
20171;DHT22;10245;51.344;6.620;2023-02-02T13:41:51;8.00;90.40
20171;DHT22;10245;51.344;6.620;2023-02-02T13:44:19;8.00;90.10
20171;DHT22;10245;51.344;6.620;2023-02-02T13:46:50;8.10;90.40
20171;DHT22;10245;51.344;6.620;2023-02-02T13:49:19;8.10;89.80
20171;DHT22;10245;51.344;6.620;2023-02-02T13:51:49;8.10;90.00
20171;DHT22;10245;51.344;6.620;2023-02-02T13:58:15;8.00;90.60
20171;DHT22;10245;51.344;6.620;2023-02-02T14:00:54;8.00;91.00
20171;DHT22;10245;51.344;6.620;2023-02-02T14:03:29;7.90;90.90
20171;DHT22;10245;51.344;6.620;2023-02-02T14:06:08;8.00;90.90
20171;DHT22;10245;51.344;6.620;2023-02-02T14:08:34;8.00;90.50
20171;DHT22;10245;51.344;6.620;2023-02-02T14:10:58;8.00;90.60
20171;DHT22;10245;51.344;6.620;2023-02-02T14:13:25;8.00;90.30
20171;DHT22;10245;51.344;6.620;2023-02-02T14:16:20;8.00;90.10
20171;DHT22;10245;51.344;6.620;2023-02-02T14:18:56;8.00;89.80
20171;DHT22;10245;51.344;6.620;2023-02-02T14:21:58;8.10;89.60
20171;DHT22;10245;51.344;6.620;2023-02-02T14:24:47;8.20;88.90
20171;DHT22;10245;51.344;6.620;2023-02-02T14:30:30;8.20;88.60
20171;DHT22;10245;51.344;6.620;2023-02-02T14:33:26;8.30;88.40
20171;DHT22;10245;51.344;6.620;2023-02-02T14:36:02;8.20;88.70
20171;DHT22;10245;51.344;6.620;2023-02-02T14:38:56;8.30;88.10
20171;DHT22;10245;51.344;6.620;2023-02-02T14:45:13;8.50;86.70
20171;DHT22;10245;51.344;6.620;2023-02-02T14:47:46;8.40;86.90
20171;DHT22;10245;51.344;6.620;2023-02-02T14:50:13;8.40;86.90
20171;DHT22;10245;51.344;6.620;2023-02-02T14:52:41;8.40;86.90
20171;DHT22;10245;51.344;6.620;2023-02-02T14:55:05;8.50;86.70
20171;DHT22;10245;51.344;6.620;2023-02-02T14:57:37;8.50;86.80
20171;DHT22;10245;51.344;6.620;2023-02-02T15:00:01;8.50;87.20
20171;DHT22;10245;51.344;6.620;2023-02-02T15:02:31;8.40;87.50
20171;DHT22;10245;51.344;6.620;2023-02-02T15:08:19;8.30;88.20
20171;DHT22;10245;51.344;6.620;2023-02-02T15:11:09;8.30;88.30
20171;DHT22;10245;51.344;6.620;2023-02-02T15:16:37;8.30;88.70
20171;DHT22;10245;51.344;6.620;2023-02-02T15:19:11;8.30;88.60
20171;DHT22;10245;51.344;6.620;2023-02-02T15:21:39;8.40;87.90
20171;DHT22;10245;51.344;6.620;2023-02-02T15:24:12;8.40;88.30
20171;DHT22;10245;51.344;6.620;2023-02-02T15:26:40;8.20;89.20
20171;DHT22;10245;51.344;6.620;2023-02-02T15:29:12;8.20;90.00
20171;DHT22;10245;51.344;6.620;2023-02-02T15:31:42;8.10;90.30
20171;DHT22;10245;51.344;6.620;2023-02-02T15:34:17;8.00;90.90
20171;DHT22;10245;51.344;6.620;2023-02-02T15:36:44;8.00;91.50
20171;DHT22;10245;51.344;6.620;2023-02-02T15:39:21;7.90;92.20
20171;DHT22;10245;51.344;6.620;2023-02-02T15:41:49;7.90;92.50
20171;DHT22;10245;51.344;6.620;2023-02-02T15:44:37;7.90;92.90
20171;DHT22;10245;51.344;6.620;2023-02-02T15:47:02;7.80;93.00
20171;DHT22;10245;51.344;6.620;2023-02-02T15:49:30;7.80;93.30
20171;DHT22;10245;51.344;6.620;2023-02-02T15:51:59;7.80;93.40
20171;DHT22;10245;51.344;6.620;2023-02-02T15:54:29;7.80;93.60
20171;DHT22;10245;51.344;6.620;2023-02-02T15:56:54;7.80;93.80
20171;DHT22;10245;51.344;6.620;2023-02-02T15:59:20;7.80;93.70
20171;DHT22;10245;51.344;6.620;2023-02-02T16:01:48;7.80;93.70
20171;DHT22;10245;51.344;6.620;2023-02-02T16:04:15;7.80;93.80
20171;DHT22;10245;51.344;6.620;2023-02-02T16:06:41;7.80;93.90
20171;DHT22;10245;51.344;6.620;2023-02-02T16:09:06;7.80;94.00
20171;DHT22;10245;51.344;6.620;2023-02-02T16:11:46;7.80;94.10
20171;DHT22;10245;51.344;6.620;2023-02-02T16:14:13;7.70;94.20
20171;DHT22;10245;51.344;6.620;2023-02-02T16:16:40;7.80;94.20